Coastal Reliance — WADZ — position and weather

sailwx.info

Track history (hours):
 
Tides and Currents Weather Stations Pressure Air Temp Water Temp Dewpoint Dewpoint Depression Visibility Wind Speed Wind Dir Waves Ship Positions

Coastal Reliance

Owner: Intrepid Ship Management, Jacksonville, FL. More information available from US FCC via Universal Licensing System and Coast Guard Vessel Documentation Center.

Last reported at 2018-Feb-16 00:46 UTC. Time now 2018-Feb-21 17:15 UTC.
Position N 25°36' W 080°02'.

Type: Towing. MMSI: 369702000.

Date/timePositionNaut miles runAvg speedWind from/ knotsBaromVisibWave heightAir tempDewpointWater temp
2018-Feb-16 00:46N 25°36' W 080°02'2 8.5
2018-Feb-16 00:30N 25°39' W 080°02'4 8.8
2018-Feb-16 00:00N 25°43' W 080°02'4 8.5
2018-Feb-15 23:30N 25°47' W 080°02'4 8.6
2018-Feb-15 23:00N 25°51' W 080°03'4 9.0
2018-Feb-15 22:30N 25°56' W 080°03'5 9.3
2018-Feb-15 22:00N 26°01' W 080°03'4 9.2
2018-Feb-15 21:30N 26°05' W 080°04'3 6.3
2018-Feb-15 21:00N 26°05' W 080°07'0 0.3
2018-Feb-15 20:30N 26°05' W 080°07'0 0.0
2018-Feb-15 20:01N 26°05' W 080°07'0 0.0
2018-Feb-15 19:30N 26°05' W 080°07'0 0.0
2018-Feb-15 19:00N 26°05' W 080°07'0 0.0
2018-Feb-15 18:28N 26°05' W 080°07'0 0.0
2018-Feb-15 17:58N 26°05' W 080°07'0 0.0
2018-Feb-15 17:28N 26°05' W 080°07'0 0.0
2018-Feb-15 16:58N 26°05' W 080°07'0 0.0
2018-Feb-15 16:28N 26°05' W 080°07'0 0.0
2018-Feb-15 15:58N 26°05' W 080°07'0 0.0
2018-Feb-15 15:28N 26°05' W 080°07'0 0.0
2018-Feb-15 14:58N 26°05' W 080°07'0 0.0
2018-Feb-15 14:28N 26°05' W 080°07'0 0.0
2018-Feb-15 13:58N 26°05' W 080°07'0 0.0
2018-Feb-15 13:28N 26°05' W 080°07'0 0.0
2018-Feb-15 12:55N 26°05' W 080°07'0 0.0
2018-Feb-15 12:28N 26°05' W 080°07'0 0.0
2018-Feb-15 11:58N 26°05' W 080°07'0 0.0
2018-Feb-15 11:28N 26°05' W 080°07'0 0.0
2018-Feb-15 10:55N 26°05' W 080°07'0 0.0
2018-Feb-15 10:28N 26°05' W 080°07'0 0.0
2018-Feb-15 09:55N 26°05' W 080°07'0 0.0
2018-Feb-15 09:28N 26°05' W 080°07'0 0.0
2018-Feb-15 08:58N 26°05' W 080°07'0 0.0
2018-Feb-15 08:28N 26°05' W 080°07'0 0.0
2018-Feb-15 07:58N 26°05' W 080°07'0 0.0
2018-Feb-15 07:28N 26°05' W 080°07'0 0.0
2018-Feb-15 06:58N 26°05' W 080°07'0 0.0
2018-Feb-15 06:25N 26°05' W 080°07'0 0.0
2018-Feb-15 05:58N 26°05' W 080°07'0 0.0
2018-Feb-15 05:28N 26°05' W 080°07'0 0.0
2018-Feb-15 04:58N 26°05' W 080°07'0 0.0
2018-Feb-15 04:28N 26°05' W 080°07'0 0.0
2018-Feb-15 03:58N 26°05' W 080°07'0 0.0
2018-Feb-15 03:28N 26°05' W 080°07'0 0.0
2018-Feb-15 02:58N 26°05' W 080°07'0 0.0
2018-Feb-15 02:28N 26°05' W 080°07'0 0.0
2018-Feb-15 01:58N 26°05' W 080°07'0 0.0
2018-Feb-15 01:28N 26°05' W 080°07'0 0.0
2018-Feb-15 00:58N 26°05' W 080°07'0 0.0
2018-Feb-15 00:28N 26°05' W 080°07'0 0.0
2018-Feb-14 23:58N 26°05' W 080°07'0 0.0
2018-Feb-14 23:28N 26°05' W 080°07'0 0.0
2018-Feb-14 22:58N 26°05' W 080°07'0 0.0
2018-Feb-14 22:28N 26°05' W 080°07'0 0.0
2018-Feb-14 21:58N 26°05' W 080°07'0 0.0
2018-Feb-14 21:28N 26°05' W 080°07'0 0.0
2018-Feb-14 20:58N 26°05' W 080°07'0 0.0
2018-Feb-14 20:28N 26°05' W 080°07'0 0.0
2018-Feb-14 19:58N 26°05' W 080°07'0 0.0
2018-Feb-14 19:28N 26°05' W 080°07'0 0.0
2018-Feb-14 18:58N 26°05' W 080°07'0 0.0
2018-Feb-14 18:28N 26°05' W 080°07'0 0.0
2018-Feb-14 17:58N 26°05' W 080°07'0 0.0
2018-Feb-14 17:28N 26°05' W 080°07'0 0.0
2018-Feb-14 16:58N 26°05' W 080°07'0 0.0
2018-Feb-14 16:28N 26°05' W 080°07'0 0.0
2018-Feb-14 15:58N 26°05' W 080°07'0 0.0
2018-Feb-14 15:31N 26°05' W 080°07'0 0.0
2018-Feb-14 15:01N 26°05' W 080°07'0 0.0
2018-Feb-14 14:31N 26°05' W 080°07'0 0.0
2018-Feb-14 14:00N 26°05' W 080°07'0 0.0
2018-Feb-14 13:30N 26°05' W 080°07'2 4.2
2018-Feb-14 13:00N 26°06' W 080°05'4 7.8
2018-Feb-14 12:30N 26°04' W 080°01'5 9.3
2018-Feb-14 12:00N 26°01' W 079°57'612.0
2018-Feb-14 11:30N 25°55' W 079°56'612.7
2018-Feb-14 11:00N 25°49' W 079°56'612.9
2018-Feb-14 10:30N 25°42' W 079°56'714.1
2018-Feb-14 09:59N 25°35' W 079°56'714.3
2018-Feb-14 09:29N 25°28' W 079°56'  
2018-Feb-07 09:30N 26°06' W 080°07'0 0.0
2018-Feb-07 09:00N 26°06' W 080°07'0 0.0
2018-Feb-07 08:27N 26°06' W 080°07'0 0.0
2018-Feb-07 08:00N 26°06' W 080°07'0 0.0
2018-Feb-07 07:30N 26°06' W 080°07'0 0.0
2018-Feb-07 07:00N 26°06' W 080°07'0 0.0
2018-Feb-07 06:27N 26°06' W 080°07'0 0.0
2018-Feb-07 06:00N 26°06' W 080°07'0 0.0
2018-Feb-07 05:30N 26°06' W 080°07'0 0.0
2018-Feb-07 05:00N 26°06' W 080°07'0 0.0
2018-Feb-07 04:30N 26°06' W 080°07'0 0.0
2018-Feb-07 03:59N 26°06' W 080°07'0 0.0
2018-Feb-07 03:29N 26°06' W 080°07'0 0.0
2018-Feb-07 02:59N 26°06' W 080°07'0 0.0
2018-Feb-07 02:29N 26°06' W 080°07'0 0.0
2018-Feb-07 01:59N 26°06' W 080°07'0 0.0
2018-Feb-07 01:29N 26°06' W 080°07'0 0.0
2018-Feb-07 00:59N 26°06' W 080°07'0 0.0
2018-Feb-07 00:29N 26°06' W 080°07'0 0.0
2018-Feb-06 23:59N 26°06' W 080°07'0 0.0
2018-Feb-06 23:29N 26°06' W 080°07'0 0.0
2018-Feb-06 22:59N 26°06' W 080°07'0 0.0
2018-Feb-06 22:29N 26°06' W 080°07'0 0.0
2018-Feb-06 21:59N 26°06' W 080°07'0 0.0
2018-Feb-06 21:29N 26°06' W 080°07'0 0.0
2018-Feb-06 20:59N 26°06' W 080°07'0 0.0
2018-Feb-06 20:29N 26°06' W 080°07'0 0.0
2018-Feb-06 19:59N 26°06' W 080°07'0 0.0
2018-Feb-06 19:29N 26°06' W 080°07'0 0.0
2018-Feb-06 18:59N 26°06' W 080°07'0 0.0
2018-Feb-06 18:29N 26°06' W 080°07'0 0.0
2018-Feb-06 17:59N 26°06' W 080°07'0 0.0
2018-Feb-06 17:29N 26°06' W 080°07'0 0.0
2018-Feb-06 16:59N 26°06' W 080°07'0 0.0
2018-Feb-06 16:29N 26°06' W 080°07'0 0.0
2018-Feb-06 15:59N 26°06' W 080°07'0 0.0
2018-Feb-06 15:29N 26°06' W 080°07'0 0.0
2018-Feb-06 14:59N 26°06' W 080°07'0 0.0
2018-Feb-06 14:29N 26°06' W 080°07'0 0.0
2018-Feb-06 13:59N 26°06' W 080°07'0 0.0
2018-Feb-06 13:29N 26°06' W 080°07'0 0.0
2018-Feb-06 12:59N 26°06' W 080°07'0 0.0
2018-Feb-06 12:29N 26°06' W 080°07'0 0.0
2018-Feb-06 11:59N 26°06' W 080°07'0 0.0
2018-Feb-06 11:26N 26°06' W 080°07'0 0.0
2018-Feb-06 10:59N 26°06' W 080°07'0 0.0
2018-Feb-06 10:29N 26°06' W 080°07'0 0.0
2018-Feb-06 09:59N 26°06' W 080°07'0 0.0
2018-Feb-06 09:29N 26°06' W 080°07'0 0.0
2018-Feb-06 08:59N 26°06' W 080°07'0 0.0
2018-Feb-06 08:29N 26°06' W 080°07'0 0.0
2018-Feb-06 07:59N 26°06' W 080°07'0 0.0
2018-Feb-06 07:29N 26°06' W 080°07'0 0.0
2018-Feb-06 06:59N 26°06' W 080°07'0 0.0
2018-Feb-06 06:29N 26°06' W 080°07'0 0.0
2018-Feb-06 05:59N 26°06' W 080°07'0 0.0
2018-Feb-06 05:29N 26°06' W 080°07'0 0.0
2018-Feb-06 04:59N 26°06' W 080°07'0 0.0
2018-Feb-06 04:29N 26°06' W 080°07'0 0.0
2018-Feb-06 03:59N 26°06' W 080°07'0 0.0
2018-Feb-06 03:29N 26°06' W 080°07'0 0.0
2018-Feb-06 02:59N 26°06' W 080°07'0 0.0
2018-Feb-06 02:30N 26°06' W 080°07'0 0.3
2018-Feb-06 02:00N 26°06' W 080°07'3 5.3
2018-Feb-06 01:30N 26°06' W 080°04'2 4.8
2018-Feb-06 01:00N 26°08' W 080°04'  
Track history (hours):
 
Tides and Currents Weather Stations Pressure Air Temp Water Temp Dewpoint Dewpoint Depression Visibility Wind Speed Wind Dir Waves Ship Positions

Coastal Reliance

Owner: Intrepid Ship Management, Jacksonville, FL. More information available from US FCC via Universal Licensing System and Coast Guard Vessel Documentation Center.

Last reported at 2018-Feb-16 00:46 UTC. Time now 2018-Feb-21 17:15 UTC.
Position N 25°36' W 080°02'.

Type: Towing. MMSI: 369702000.

Date/timePositionNaut miles runAvg speedWind from/ knotsBaromVisibWave heightAir tempDewpointWater temp
2018-Feb-16 00:46N 25°36' W 080°02'2 8.5
2018-Feb-16 00:30N 25°39' W 080°02'4 8.8
2018-Feb-16 00:00N 25°43' W 080°02'4 8.5
2018-Feb-15 23:30N 25°47' W 080°02'4 8.6
2018-Feb-15 23:00N 25°51' W 080°03'4 9.0
2018-Feb-15 22:30N 25°56' W 080°03'5 9.3
2018-Feb-15 22:00N 26°01' W 080°03'4 9.2
2018-Feb-15 21:30N 26°05' W 080°04'3 6.3
2018-Feb-15 21:00N 26°05' W 080°07'0 0.3
2018-Feb-15 20:30N 26°05' W 080°07'0 0.0
2018-Feb-15 20:01N 26°05' W 080°07'0 0.0
2018-Feb-15 19:30N 26°05' W 080°07'0 0.0
2018-Feb-15 19:00N 26°05' W 080°07'0 0.0
2018-Feb-15 18:28N 26°05' W 080°07'0 0.0
2018-Feb-15 17:58N 26°05' W 080°07'0 0.0
2018-Feb-15 17:28N 26°05' W 080°07'0 0.0
2018-Feb-15 16:58N 26°05' W 080°07'0 0.0
2018-Feb-15 16:28N 26°05' W 080°07'0 0.0
2018-Feb-15 15:58N 26°05' W 080°07'0 0.0
2018-Feb-15 15:28N 26°05' W 080°07'0 0.0
2018-Feb-15 14:58N 26°05' W 080°07'0 0.0
2018-Feb-15 14:28N 26°05' W 080°07'0 0.0
2018-Feb-15 13:58N 26°05' W 080°07'0 0.0
2018-Feb-15 13:28N 26°05' W 080°07'0 0.0
2018-Feb-15 12:55N 26°05' W 080°07'0 0.0
2018-Feb-15 12:28N 26°05' W 080°07'0 0.0
2018-Feb-15 11:58N 26°05' W 080°07'0 0.0
2018-Feb-15 11:28N 26°05' W 080°07'0 0.0
2018-Feb-15 10:55N 26°05' W 080°07'0 0.0
2018-Feb-15 10:28N 26°05' W 080°07'0 0.0
2018-Feb-15 09:55N 26°05' W 080°07'0 0.0
2018-Feb-15 09:28N 26°05' W 080°07'0 0.0
2018-Feb-15 08:58N 26°05' W 080°07'0 0.0
2018-Feb-15 08:28N 26°05' W 080°07'0 0.0
2018-Feb-15 07:58N 26°05' W 080°07'0 0.0
2018-Feb-15 07:28N 26°05' W 080°07'0 0.0
2018-Feb-15 06:58N 26°05' W 080°07'0 0.0
2018-Feb-15 06:25N 26°05' W 080°07'0 0.0
2018-Feb-15 05:58N 26°05' W 080°07'0 0.0
2018-Feb-15 05:28N 26°05' W 080°07'0 0.0
2018-Feb-15 04:58N 26°05' W 080°07'0 0.0
2018-Feb-15 04:28N 26°05' W 080°07'0 0.0
2018-Feb-15 03:58N 26°05' W 080°07'0 0.0
2018-Feb-15 03:28N 26°05' W 080°07'0 0.0
2018-Feb-15 02:58N 26°05' W 080°07'0 0.0
2018-Feb-15 02:28N 26°05' W 080°07'0 0.0
2018-Feb-15 01:58N 26°05' W 080°07'0 0.0
2018-Feb-15 01:28N 26°05' W 080°07'0 0.0
2018-Feb-15 00:58N 26°05' W 080°07'0 0.0
2018-Feb-15 00:28N 26°05' W 080°07'0 0.0
2018-Feb-14 23:58N 26°05' W 080°07'0 0.0
2018-Feb-14 23:28N 26°05' W 080°07'0 0.0
2018-Feb-14 22:58N 26°05' W 080°07'0 0.0
2018-Feb-14 22:28N 26°05' W 080°07'0 0.0
2018-Feb-14 21:58N 26°05' W 080°07'0 0.0
2018-Feb-14 21:28N 26°05' W 080°07'0 0.0
2018-Feb-14 20:58N 26°05' W 080°07'0 0.0
2018-Feb-14 20:28N 26°05' W 080°07'0 0.0
2018-Feb-14 19:58N 26°05' W 080°07'0 0.0
2018-Feb-14 19:28N 26°05' W 080°07'0 0.0
2018-Feb-14 18:58N 26°05' W 080°07'0 0.0
2018-Feb-14 18:28N 26°05' W 080°07'0 0.0
2018-Feb-14 17:58N 26°05' W 080°07'0 0.0
2018-Feb-14 17:28N 26°05' W 080°07'0 0.0
2018-Feb-14 16:58N 26°05' W 080°07'0 0.0
2018-Feb-14 16:28N 26°05' W 080°07'0 0.0
2018-Feb-14 15:58N 26°05' W 080°07'0 0.0
2018-Feb-14 15:31N 26°05' W 080°07'0 0.0
2018-Feb-14 15:01N 26°05' W 080°07'0 0.0
2018-Feb-14 14:31N 26°05' W 080°07'0 0.0
2018-Feb-14 14:00N 26°05' W 080°07'0 0.0
2018-Feb-14 13:30N 26°05' W 080°07'2 4.2
2018-Feb-14 13:00N 26°06' W 080°05'4 7.8
2018-Feb-14 12:30N 26°04' W 080°01'5 9.3
2018-Feb-14 12:00N 26°01' W 079°57'612.0
2018-Feb-14 11:30N 25°55' W 079°56'612.7
2018-Feb-14 11:00N 25°49' W 079°56'612.9
2018-Feb-14 10:30N 25°42' W 079°56'714.1
2018-Feb-14 09:59N 25°35' W 079°56'714.3
2018-Feb-14 09:29N 25°28' W 079°56'  
2018-Feb-07 09:30N 26°06' W 080°07'0 0.0
2018-Feb-07 09:00N 26°06' W 080°07'0 0.0
2018-Feb-07 08:27N 26°06' W 080°07'0 0.0
2018-Feb-07 08:00N 26°06' W 080°07'0 0.0
2018-Feb-07 07:30N 26°06' W 080°07'0 0.0
2018-Feb-07 07:00N 26°06' W 080°07'0 0.0
2018-Feb-07 06:27N 26°06' W 080°07'0 0.0
2018-Feb-07 06:00N 26°06' W 080°07'0 0.0
2018-Feb-07 05:30N 26°06' W 080°07'0 0.0
2018-Feb-07 05:00N 26°06' W 080°07'0 0.0
2018-Feb-07 04:30N 26°06' W 080°07'0 0.0
2018-Feb-07 03:59N 26°06' W 080°07'0 0.0
2018-Feb-07 03:29N 26°06' W 080°07'0 0.0
2018-Feb-07 02:59N 26°06' W 080°07'0 0.0
2018-Feb-07 02:29N 26°06' W 080°07'0 0.0
2018-Feb-07 01:59N 26°06' W 080°07'0 0.0
2018-Feb-07 01:29N 26°06' W 080°07'0 0.0
2018-Feb-07 00:59N 26°06' W 080°07'0 0.0
2018-Feb-07 00:29N 26°06' W 080°07'0 0.0
2018-Feb-06 23:59N 26°06' W 080°07'0 0.0
2018-Feb-06 23:29N 26°06' W 080°07'0 0.0
2018-Feb-06 22:59N 26°06' W 080°07'0 0.0
2018-Feb-06 22:29N 26°06' W 080°07'0 0.0
2018-Feb-06 21:59N 26°06' W 080°07'0 0.0
2018-Feb-06 21:29N 26°06' W 080°07'0 0.0
2018-Feb-06 20:59N 26°06' W 080°07'0 0.0
2018-Feb-06 20:29N 26°06' W 080°07'0 0.0
2018-Feb-06 19:59N 26°06' W 080°07'0 0.0
2018-Feb-06 19:29N 26°06' W 080°07'0 0.0
2018-Feb-06 18:59N 26°06' W 080°07'0 0.0
2018-Feb-06 18:29N 26°06' W 080°07'0 0.0
2018-Feb-06 17:59N 26°06' W 080°07'0 0.0
2018-Feb-06 17:29N 26°06' W 080°07'0 0.0
2018-Feb-06 16:59N 26°06' W 080°07'0 0.0
2018-Feb-06 16:29N 26°06' W 080°07'0 0.0
2018-Feb-06 15:59N 26°06' W 080°07'0 0.0
2018-Feb-06 15:29N 26°06' W 080°07'0 0.0
2018-Feb-06 14:59N 26°06' W 080°07'0 0.0
2018-Feb-06 14:29N 26°06' W 080°07'0 0.0
2018-Feb-06 13:59N 26°06' W 080°07'0 0.0
2018-Feb-06 13:29N 26°06' W 080°07'0 0.0
2018-Feb-06 12:59N 26°06' W 080°07'0 0.0
2018-Feb-06 12:29N 26°06' W 080°07'0 0.0
2018-Feb-06 11:59N 26°06' W 080°07'0 0.0
2018-Feb-06 11:26N 26°06' W 080°07'0 0.0
2018-Feb-06 10:59N 26°06' W 080°07'0 0.0
2018-Feb-06 10:29N 26°06' W 080°07'0 0.0
2018-Feb-06 09:59N 26°06' W 080°07'0 0.0
2018-Feb-06 09:29N 26°06' W 080°07'0 0.0
2018-Feb-06 08:59N 26°06' W 080°07'0 0.0
2018-Feb-06 08:29N 26°06' W 080°07'0 0.0
2018-Feb-06 07:59N 26°06' W 080°07'0 0.0
2018-Feb-06 07:29N 26°06' W 080°07'0 0.0
2018-Feb-06 06:59N 26°06' W 080°07'0 0.0
2018-Feb-06 06:29N 26°06' W 080°07'0 0.0
2018-Feb-06 05:59N 26°06' W 080°07'0 0.0
2018-Feb-06 05:29N 26°06' W 080°07'0 0.0
2018-Feb-06 04:59N 26°06' W 080°07'0 0.0
2018-Feb-06 04:29N 26°06' W 080°07'0 0.0
2018-Feb-06 03:59N 26°06' W 080°07'0 0.0
2018-Feb-06 03:29N 26°06' W 080°07'0 0.0
2018-Feb-06 02:59N 26°06' W 080°07'0 0.0
2018-Feb-06 02:30N 26°06' W 080°07'0 0.3
2018-Feb-06 02:00N 26°06' W 080°07'3 5.3
2018-Feb-06 01:30N 26°06' W 080°04'2 4.8
2018-Feb-06 01:00N 26°08' W 080°04'  

Dump ship's entire track history